sensor_id;sensor_type;location;lat;lon;timestamp;P1;durP1;ratioP1;P2;durP2;ratioP2
34136;SDS011;20414;50.860;4.382;2022-12-18T00:02:22;10.90;;;7.18;;
34136;SDS011;20414;50.860;4.382;2022-12-18T00:04:48;9.73;;;7.18;;
34136;SDS011;20414;50.860;4.382;2022-12-18T00:07:13;9.15;;;7.35;;
34136;SDS011;20414;50.860;4.382;2022-12-18T00:09:39;9.77;;;7.55;;
34136;SDS011;20414;50.860;4.382;2022-12-18T00:12:05;9.68;;;7.68;;
34136;SDS011;20414;50.860;4.382;2022-12-18T00:14:31;10.27;;;7.57;;
34136;SDS011;20414;50.860;4.382;2022-12-18T00:16:57;11.23;;;7.85;;
34136;SDS011;20414;50.860;4.382;2022-12-18T00:19:25;9.77;;;6.82;;
34136;SDS011;20414;50.860;4.382;2022-12-18T00:21:51;9.27;;;6.70;;
34136;SDS011;20414;50.860;4.382;2022-12-18T00:24:17;9.07;;;6.95;;
34136;SDS011;20414;50.860;4.382;2022-12-18T00:26:43;10.38;;;7.45;;
34136;SDS011;20414;50.860;4.382;2022-12-18T00:29:13;8.68;;;6.70;;
34136;SDS011;20414;50.860;4.382;2022-12-18T00:31:39;8.38;;;6.63;;
34136;SDS011;20414;50.860;4.382;2022-12-18T00:34:08;9.50;;;7.03;;
34136;SDS011;20414;50.860;4.382;2022-12-18T00:36:36;9.68;;;7.07;;
34136;SDS011;20414;50.860;4.382;2022-12-18T00:39:03;9.50;;;6.93;;
34136;SDS011;20414;50.860;4.382;2022-12-18T00:41:30;9.82;;;6.85;;
34136;SDS011;20414;50.860;4.382;2022-12-18T00:44:15;8.85;;;6.93;;
34136;SDS011;20414;50.860;4.382;2022-12-18T00:46:42;10.70;;;7.38;;
34136;SDS011;20414;50.860;4.382;2022-12-18T00:49:08;9.23;;;7.13;;
34136;SDS011;20414;50.860;4.382;2022-12-18T00:51:40;9.18;;;7.07;;
34136;SDS011;20414;50.860;4.382;2022-12-18T00:54:06;9.68;;;6.97;;
34136;SDS011;20414;50.860;4.382;2022-12-18T00:56:31;9.05;;;6.80;;
34136;SDS011;20414;50.860;4.382;2022-12-18T00:58:57;9.20;;;6.78;;
34136;SDS011;20414;50.860;4.382;2022-12-18T01:01:23;8.30;;;6.55;;
34136;SDS011;20414;50.860;4.382;2022-12-18T01:03:49;9.18;;;6.60;;
34136;SDS011;20414;50.860;4.382;2022-12-18T01:06:14;8.63;;;6.65;;
34136;SDS011;20414;50.860;4.382;2022-12-18T01:08:44;9.05;;;6.80;;
34136;SDS011;20414;50.860;4.382;2022-12-18T01:11:11;9.90;;;6.85;;
34136;SDS011;20414;50.860;4.382;2022-12-18T01:13:39;9.63;;;7.03;;
34136;SDS011;20414;50.860;4.382;2022-12-18T01:16:05;10.43;;;6.72;;
34136;SDS011;20414;50.860;4.382;2022-12-18T01:18:31;9.30;;;6.95;;
34136;SDS011;20414;50.860;4.382;2022-12-18T01:20:56;8.55;;;6.43;;
34136;SDS011;20414;50.860;4.382;2022-12-18T01:23:22;8.68;;;6.50;;
34136;SDS011;20414;50.860;4.382;2022-12-18T01:25:48;9.00;;;6.32;;
34136;SDS011;20414;50.860;4.382;2022-12-18T01:28:13;8.98;;;6.43;;
34136;SDS011;20414;50.860;4.382;2022-12-18T01:30:39;7.90;;;6.50;;
34136;SDS011;20414;50.860;4.382;2022-12-18T01:33:05;8.75;;;6.53;;
34136;SDS011;20414;50.860;4.382;2022-12-18T01:35:30;7.55;;;6.15;;
34136;SDS011;20414;50.860;4.382;2022-12-18T01:37:56;8.43;;;6.85;;
34136;SDS011;20414;50.860;4.382;2022-12-18T01:40:22;8.93;;;6.55;;
34136;SDS011;20414;50.860;4.382;2022-12-18T01:42:51;7.70;;;6.10;;
34136;SDS011;20414;50.860;4.382;2022-12-18T01:47:47;8.85;;;6.57;;
34136;SDS011;20414;50.860;4.382;2022-12-18T01:50:31;7.55;;;5.97;;
34136;SDS011;20414;50.860;4.382;2022-12-18T01:53:17;7.28;;;5.70;;
34136;SDS011;20414;50.860;4.382;2022-12-18T01:58:19;7.35;;;5.75;;
34136;SDS011;20414;50.860;4.382;2022-12-18T02:00:49;8.15;;;5.93;;
34136;SDS011;20414;50.860;4.382;2022-12-18T02:03:15;7.30;;;6.13;;
34136;SDS011;20414;50.860;4.382;2022-12-18T02:12:13;7.50;;;5.90;;
34136;SDS011;20414;50.860;4.382;2022-12-18T02:17:54;7.10;;;5.75;;
34136;SDS011;20414;50.860;4.382;2022-12-18T02:20:25;7.28;;;5.55;;
34136;SDS011;20414;50.860;4.382;2022-12-18T02:23:01;6.30;;;5.05;;
34136;SDS011;20414;50.860;4.382;2022-12-18T02:28:30;7.57;;;5.75;;
34136;SDS011;20414;50.860;4.382;2022-12-18T02:31:00;9.00;;;5.38;;
34136;SDS011;20414;50.860;4.382;2022-12-18T02:33:28;6.20;;;5.35;;
34136;SDS011;20414;50.860;4.382;2022-12-18T02:35:55;7.28;;;5.53;;
34136;SDS011;20414;50.860;4.382;2022-12-18T02:38:23;8.65;;;5.50;;
34136;SDS011;20414;50.860;4.382;2022-12-18T02:40:50;7.40;;;5.60;;
34136;SDS011;20414;50.860;4.382;2022-12-18T02:43:18;7.88;;;4.93;;
34136;SDS011;20414;50.860;4.382;2022-12-18T02:45:50;6.30;;;5.05;;
34136;SDS011;20414;50.860;4.382;2022-12-18T02:48:21;6.18;;;4.90;;
34136;SDS011;20414;50.860;4.382;2022-12-18T02:53:29;7.47;;;5.45;;
34136;SDS011;20414;50.860;4.382;2022-12-18T03:01:08;6.82;;;5.20;;
34136;SDS011;20414;50.860;4.382;2022-12-18T03:03:39;6.72;;;5.03;;
34136;SDS011;20414;50.860;4.382;2022-12-18T03:08:38;8.60;;;4.97;;
34136;SDS011;20414;50.860;4.382;2022-12-18T03:11:08;5.80;;;4.82;;
34136;SDS011;20414;50.860;4.382;2022-12-18T03:13:42;5.53;;;4.80;;
34136;SDS011;20414;50.860;4.382;2022-12-18T03:16:22;7.50;;;5.72;;
34136;SDS011;20414;50.860;4.382;2022-12-18T03:19:09;7.18;;;4.75;;
34136;SDS011;20414;50.860;4.382;2022-12-18T03:21:45;5.78;;;4.65;;
34136;SDS011;20414;50.860;4.382;2022-12-18T03:24:15;6.68;;;5.15;;
34136;SDS011;20414;50.860;4.382;2022-12-18T03:26:44;5.88;;;4.53;;
34136;SDS011;20414;50.860;4.382;2022-12-18T03:29:18;6.32;;;4.63;;
34136;SDS011;20414;50.860;4.382;2022-12-18T03:31:51;5.43;;;4.78;;
34136;SDS011;20414;50.860;4.382;2022-12-18T03:34:26;6.38;;;5.00;;
34136;SDS011;20414;50.860;4.382;2022-12-18T03:36:55;6.60;;;5.00;;
34136;SDS011;20414;50.860;4.382;2022-12-18T03:39:23;5.88;;;4.45;;
34136;SDS011;20414;50.860;4.382;2022-12-18T03:41:55;6.13;;;4.55;;
34136;SDS011;20414;50.860;4.382;2022-12-18T03:49:33;6.25;;;4.80;;
34136;SDS011;20414;50.860;4.382;2022-12-18T03:52:06;5.68;;;4.38;;
34136;SDS011;20414;50.860;4.382;2022-12-18T03:54:47;5.70;;;4.50;;
34136;SDS011;20414;50.860;4.382;2022-12-18T03:57:15;5.82;;;4.07;;
34136;SDS011;20414;50.860;4.382;2022-12-18T03:59:43;6.25;;;4.53;;
34136;SDS011;20414;50.860;4.382;2022-12-18T04:02:12;5.82;;;4.40;;
34136;SDS011;20414;50.860;4.382;2022-12-18T04:04:41;5.75;;;4.13;;
34136;SDS011;20414;50.860;4.382;2022-12-18T04:07:08;5.57;;;4.30;;
34136;SDS011;20414;50.860;4.382;2022-12-18T04:09:34;5.15;;;4.45;;
34136;SDS011;20414;50.860;4.382;2022-12-18T04:12:01;5.90;;;4.53;;
34136;SDS011;20414;50.860;4.382;2022-12-18T04:14:27;4.85;;;3.95;;
34136;SDS011;20414;50.860;4.382;2022-12-18T04:16:53;5.35;;;4.10;;
34136;SDS011;20414;50.860;4.382;2022-12-18T04:19:19;5.95;;;4.18;;
34136;SDS011;20414;50.860;4.382;2022-12-18T04:21:44;5.63;;;4.47;;
34136;SDS011;20414;50.860;4.382;2022-12-18T04:24:10;6.05;;;4.35;;
34136;SDS011;20414;50.860;4.382;2022-12-18T04:26:36;6.53;;;4.40;;
34136;SDS011;20414;50.860;4.382;2022-12-18T04:29:03;5.78;;;4.22;;
34136;SDS011;20414;50.860;4.382;2022-12-18T04:31:29;5.47;;;4.15;;
34136;SDS011;20414;50.860;4.382;2022-12-18T04:33:55;6.07;;;4.72;;
34136;SDS011;20414;50.860;4.382;2022-12-18T04:36:21;5.32;;;4.22;;
34136;SDS011;20414;50.860;4.382;2022-12-18T04:38:46;5.68;;;4.18;;
34136;SDS011;20414;50.860;4.382;2022-12-18T04:41:12;4.90;;;3.88;;
34136;SDS011;20414;50.860;4.382;2022-12-18T04:43:38;5.40;;;4.28;;
34136;SDS011;20414;50.860;4.382;2022-12-18T04:46:07;6.30;;;4.60;;
34136;SDS011;20414;50.860;4.382;2022-12-18T04:48:33;6.97;;;4.27;;
34136;SDS011;20414;50.860;4.382;2022-12-18T04:50:59;5.13;;;3.90;;
34136;SDS011;20414;50.860;4.382;2022-12-18T04:53:25;4.93;;;3.90;;
34136;SDS011;20414;50.860;4.382;2022-12-18T04:56:01;5.85;;;4.38;;
34136;SDS011;20414;50.860;4.382;2022-12-18T04:58:35;5.32;;;3.92;;
34136;SDS011;20414;50.860;4.382;2022-12-18T05:01:01;4.78;;;3.90;;
34136;SDS011;20414;50.860;4.382;2022-12-18T05:03:27;7.88;;;4.60;;
34136;SDS011;20414;50.860;4.382;2022-12-18T05:05:53;5.10;;;3.92;;
34136;SDS011;20414;50.860;4.382;2022-12-18T05:08:18;5.40;;;4.20;;
34136;SDS011;20414;50.860;4.382;2022-12-18T05:10:47;5.93;;;3.70;;
34136;SDS011;20414;50.860;4.382;2022-12-18T05:13:12;4.35;;;3.58;;
34136;SDS011;20414;50.860;4.382;2022-12-18T05:15:38;4.80;;;3.78;;
34136;SDS011;20414;50.860;4.382;2022-12-18T05:18:04;4.75;;;3.88;;
34136;SDS011;20414;50.860;4.382;2022-12-18T05:20:30;5.35;;;3.72;;
34136;SDS011;20414;50.860;4.382;2022-12-18T05:22:56;7.05;;;4.07;;
34136;SDS011;20414;50.860;4.382;2022-12-18T05:25:23;4.72;;;3.80;;
34136;SDS011;20414;50.860;4.382;2022-12-18T05:27:49;4.28;;;3.67;;
34136;SDS011;20414;50.860;4.382;2022-12-18T05:30:15;5.63;;;4.20;;
34136;SDS011;20414;50.860;4.382;2022-12-18T05:32:41;5.45;;;4.00;;
34136;SDS011;20414;50.860;4.382;2022-12-18T05:35:08;4.80;;;3.88;;
34136;SDS011;20414;50.860;4.382;2022-12-18T05:37:35;4.40;;;3.60;;
34136;SDS011;20414;50.860;4.382;2022-12-18T05:40:02;4.70;;;3.75;;
34136;SDS011;20414;50.860;4.382;2022-12-18T05:42:28;4.63;;;3.58;;
34136;SDS011;20414;50.860;4.382;2022-12-18T05:44:54;3.95;;;3.40;;
34136;SDS011;20414;50.860;4.382;2022-12-18T05:47:19;4.68;;;3.70;;
34136;SDS011;20414;50.860;4.382;2022-12-18T05:49:45;4.65;;;3.53;;
34136;SDS011;20414;50.860;4.382;2022-12-18T05:52:11;5.03;;;3.63;;
34136;SDS011;20414;50.860;4.382;2022-12-18T05:54:37;4.78;;;3.40;;
34136;SDS011;20414;50.860;4.382;2022-12-18T05:57:02;5.80;;;4.13;;
34136;SDS011;20414;50.860;4.382;2022-12-18T05:59:28;4.75;;;3.88;;
34136;SDS011;20414;50.860;4.382;2022-12-18T06:01:54;4.43;;;3.40;;
34136;SDS011;20414;50.860;4.382;2022-12-18T06:04:22;4.75;;;3.50;;
34136;SDS011;20414;50.860;4.382;2022-12-18T06:06:48;4.60;;;3.60;;
34136;SDS011;20414;50.860;4.382;2022-12-18T06:09:14;5.03;;;3.80;;
34136;SDS011;20414;50.860;4.382;2022-12-18T06:11:39;4.90;;;3.55;;
34136;SDS011;20414;50.860;4.382;2022-12-18T06:14:06;4.43;;;3.30;;
34136;SDS011;20414;50.860;4.382;2022-12-18T06:16:32;4.35;;;3.42;;
34136;SDS011;20414;50.860;4.382;2022-12-18T06:18:58;4.85;;;3.25;;
34136;SDS011;20414;50.860;4.382;2022-12-18T06:21:27;4.20;;;3.42;;
34136;SDS011;20414;50.860;4.382;2022-12-18T06:23:53;4.35;;;3.42;;
34136;SDS011;20414;50.860;4.382;2022-12-18T06:26:19;5.18;;;3.30;;
34136;SDS011;20414;50.860;4.382;2022-12-18T06:28:45;4.22;;;3.28;;
34136;SDS011;20414;50.860;4.382;2022-12-18T06:31:11;4.03;;;3.50;;
34136;SDS011;20414;50.860;4.382;2022-12-18T06:33:37;3.65;;;3.10;;
34136;SDS011;20414;50.860;4.382;2022-12-18T06:36:04;4.47;;;3.58;;
34136;SDS011;20414;50.860;4.382;2022-12-18T06:38:37;3.70;;;3.10;;
34136;SDS011;20414;50.860;4.382;2022-12-18T06:41:08;3.97;;;3.25;;
34136;SDS011;20414;50.860;4.382;2022-12-18T06:43:36;4.45;;;3.38;;
34136;SDS011;20414;50.860;4.382;2022-12-18T06:46:03;4.72;;;3.47;;
34136;SDS011;20414;50.860;4.382;2022-12-18T06:48:30;4.50;;;3.20;;
34136;SDS011;20414;50.860;4.382;2022-12-18T06:50:55;4.07;;;2.90;;
34136;SDS011;20414;50.860;4.382;2022-12-18T06:53:21;4.43;;;3.35;;
34136;SDS011;20414;50.860;4.382;2022-12-18T06:55:47;4.90;;;3.50;;
34136;SDS011;20414;50.860;4.382;2022-12-18T06:58:14;4.32;;;3.28;;
34136;SDS011;20414;50.860;4.382;2022-12-18T07:00:40;5.00;;;3.63;;
34136;SDS011;20414;50.860;4.382;2022-12-18T07:03:05;3.78;;;3.05;;
34136;SDS011;20414;50.860;4.382;2022-12-18T07:05:31;4.03;;;2.78;;
34136;SDS011;20414;50.860;4.382;2022-12-18T07:07:57;3.63;;;3.10;;
34136;SDS011;20414;50.860;4.382;2022-12-18T07:10:23;3.45;;;2.90;;
34136;SDS011;20414;50.860;4.382;2022-12-18T07:12:49;4.78;;;3.10;;
34136;SDS011;20414;50.860;4.382;2022-12-18T07:15:15;3.47;;;2.58;;
34136;SDS011;20414;50.860;4.382;2022-12-18T07:17:44;3.58;;;3.00;;
34136;SDS011;20414;50.860;4.382;2022-12-18T07:20:12;4.00;;;3.00;;
34136;SDS011;20414;50.860;4.382;2022-12-18T07:22:37;3.78;;;2.90;;
34136;SDS011;20414;50.860;4.382;2022-12-18T07:25:03;2.83;;;2.25;;
34136;SDS011;20414;50.860;4.382;2022-12-18T07:27:29;3.42;;;2.65;;
34136;SDS011;20414;50.860;4.382;2022-12-18T07:29:55;3.45;;;2.97;;
34136;SDS011;20414;50.860;4.382;2022-12-18T07:32:21;3.97;;;2.80;;
34136;SDS011;20414;50.860;4.382;2022-12-18T07:34:46;4.10;;;3.13;;
34136;SDS011;20414;50.860;4.382;2022-12-18T07:37:12;3.42;;;2.45;;
34136;SDS011;20414;50.860;4.382;2022-12-18T07:39:40;3.78;;;2.67;;
34136;SDS011;20414;50.860;4.382;2022-12-18T07:42:06;3.53;;;2.85;;
34136;SDS011;20414;50.860;4.382;2022-12-18T07:44:50;4.15;;;2.70;;
34136;SDS011;20414;50.860;4.382;2022-12-18T07:47:16;3.15;;;2.80;;
34136;SDS011;20414;50.860;4.382;2022-12-18T07:49:41;3.42;;;2.70;;
34136;SDS011;20414;50.860;4.382;2022-12-18T07:52:07;3.42;;;2.42;;
34136;SDS011;20414;50.860;4.382;2022-12-18T07:54:34;3.75;;;2.47;;
34136;SDS011;20414;50.860;4.382;2022-12-18T07:57:00;3.80;;;2.80;;
34136;SDS011;20414;50.860;4.382;2022-12-18T07:59:26;3.60;;;2.70;;
34136;SDS011;20414;50.860;4.382;2022-12-18T08:01:51;3.47;;;2.40;;
34136;SDS011;20414;50.860;4.382;2022-12-18T08:04:17;3.05;;;2.45;;
34136;SDS011;20414;50.860;4.382;2022-12-18T08:06:43;3.15;;;2.63;;
34136;SDS011;20414;50.860;4.382;2022-12-18T08:09:09;3.13;;;2.45;;
34136;SDS011;20414;50.860;4.382;2022-12-18T08:11:35;3.10;;;2.40;;
34136;SDS011;20414;50.860;4.382;2022-12-18T08:14:01;3.42;;;2.78;;
34136;SDS011;20414;50.860;4.382;2022-12-18T08:16:26;3.63;;;2.63;;
34136;SDS011;20414;50.860;4.382;2022-12-18T08:18:52;3.17;;;2.20;;
34136;SDS011;20414;50.860;4.382;2022-12-18T08:21:20;3.47;;;2.60;;
34136;SDS011;20414;50.860;4.382;2022-12-18T08:23:49;2.55;;;2.35;;
34136;SDS011;20414;50.860;4.382;2022-12-18T08:26:15;3.17;;;2.30;;
34136;SDS011;20414;50.860;4.382;2022-12-18T08:28:42;2.97;;;2.28;;
34136;SDS011;20414;50.860;4.382;2022-12-18T08:31:08;4.30;;;2.22;;
34136;SDS011;20414;50.860;4.382;2022-12-18T08:33:35;2.50;;;2.30;;
34136;SDS011;20414;50.860;4.382;2022-12-18T08:36:03;2.80;;;2.42;;
34136;SDS011;20414;50.860;4.382;2022-12-18T08:38:29;3.47;;;2.60;;
34136;SDS011;20414;50.860;4.382;2022-12-18T08:41:05;3.47;;;2.55;;
34136;SDS011;20414;50.860;4.382;2022-12-18T08:43:32;3.28;;;2.40;;
34136;SDS011;20414;50.860;4.382;2022-12-18T08:46:17;3.25;;;2.38;;
34136;SDS011;20414;50.860;4.382;2022-12-18T08:48:43;2.92;;;2.10;;
34136;SDS011;20414;50.860;4.382;2022-12-18T08:51:09;2.95;;;2.50;;
34136;SDS011;20414;50.860;4.382;2022-12-18T08:53:35;2.28;;;2.00;;
34136;SDS011;20414;50.860;4.382;2022-12-18T08:56:01;3.88;;;2.63;;
34136;SDS011;20414;50.860;4.382;2022-12-18T08:58:28;3.25;;;2.45;;
34136;SDS011;20414;50.860;4.382;2022-12-18T09:00:59;3.45;;;2.38;;
34136;SDS011;20414;50.860;4.382;2022-12-18T09:03:29;2.95;;;2.30;;
34136;SDS011;20414;50.860;4.382;2022-12-18T09:05:54;2.78;;;2.20;;
34136;SDS011;20414;50.860;4.382;2022-12-18T09:08:20;2.55;;;1.92;;
34136;SDS011;20414;50.860;4.382;2022-12-18T09:10:47;2.92;;;2.47;;
34136;SDS011;20414;50.860;4.382;2022-12-18T09:13:14;2.55;;;2.08;;
34136;SDS011;20414;50.860;4.382;2022-12-18T09:15:42;2.58;;;2.08;;
34136;SDS011;20414;50.860;4.382;2022-12-18T09:18:10;3.22;;;2.30;;
34136;SDS011;20414;50.860;4.382;2022-12-18T09:20:38;3.30;;;2.30;;
34136;SDS011;20414;50.860;4.382;2022-12-18T09:23:04;2.33;;;1.92;;
34136;SDS011;20414;50.860;4.382;2022-12-18T09:25:30;2.65;;;2.00;;
34136;SDS011;20414;50.860;4.382;2022-12-18T09:27:59;3.08;;;2.22;;
34136;SDS011;20414;50.860;4.382;2022-12-18T09:30:25;2.50;;;2.10;;
34136;SDS011;20414;50.860;4.382;2022-12-18T09:32:51;2.38;;;1.88;;
34136;SDS011;20414;50.860;4.382;2022-12-18T09:35:17;2.40;;;2.10;;
34136;SDS011;20414;50.860;4.382;2022-12-18T09:37:42;2.35;;;2.00;;
34136;SDS011;20414;50.860;4.382;2022-12-18T09:40:15;2.90;;;1.98;;
34136;SDS011;20414;50.860;4.382;2022-12-18T09:42:48;3.15;;;2.25;;
34136;SDS011;20414;50.860;4.382;2022-12-18T09:45:21;2.75;;;2.28;;
34136;SDS011;20414;50.860;4.382;2022-12-18T09:47:48;3.03;;;2.00;;
34136;SDS011;20414;50.860;4.382;2022-12-18T09:53:03;3.72;;;2.00;;
34136;SDS011;20414;50.860;4.382;2022-12-18T09:58:02;3.85;;;2.30;;
34136;SDS011;20414;50.860;4.382;2022-12-18T10:00:42;2.50;;;2.20;;
34136;SDS011;20414;50.860;4.382;2022-12-18T10:03:14;2.30;;;1.80;;
34136;SDS011;20414;50.860;4.382;2022-12-18T10:05:44;2.20;;;1.90;;
34136;SDS011;20414;50.860;4.382;2022-12-18T10:08:20;2.67;;;1.85;;
34136;SDS011;20414;50.860;4.382;2022-12-18T10:10:56;2.47;;;1.88;;
34136;SDS011;20414;50.860;4.382;2022-12-18T10:19:58;2.42;;;1.80;;
34136;SDS011;20414;50.860;4.382;2022-12-18T10:22:43;2.35;;;1.80;;
34136;SDS011;20414;50.860;4.382;2022-12-18T10:27:45;2.63;;;1.95;;
34136;SDS011;20414;50.860;4.382;2022-12-18T10:30:12;3.15;;;2.00;;
34136;SDS011;20414;50.860;4.382;2022-12-18T10:32:40;2.58;;;2.10;;
34136;SDS011;20414;50.860;4.382;2022-12-18T10:35:27;2.25;;;1.73;;
34136;SDS011;20414;50.860;4.382;2022-12-18T10:43:32;2.40;;;1.70;;
34136;SDS011;20414;50.860;4.382;2022-12-18T10:51:21;3.40;;;1.92;;
34136;SDS011;20414;50.860;4.382;2022-12-18T10:53:56;2.42;;;1.80;;
34136;SDS011;20414;50.860;4.382;2022-12-18T10:56:27;2.75;;;2.10;;
34136;SDS011;20414;50.860;4.382;2022-12-18T10:58:56;2.35;;;1.77;;
34136;SDS011;20414;50.860;4.382;2022-12-18T11:01:24;2.58;;;1.80;;
34136;SDS011;20414;50.860;4.382;2022-12-18T11:06:21;2.30;;;1.70;;
34136;SDS011;20414;50.860;4.382;2022-12-18T11:09:05;3.43;;;1.90;;
34136;SDS011;20414;50.860;4.382;2022-12-18T11:11:51;2.85;;;2.05;;
34136;SDS011;20414;50.860;4.382;2022-12-18T11:14:26;2.80;;;2.08;;
34136;SDS011;20414;50.860;4.382;2022-12-18T11:16:56;2.72;;;2.00;;
34136;SDS011;20414;50.860;4.382;2022-12-18T11:19:26;2.50;;;2.05;;
34136;SDS011;20414;50.860;4.382;2022-12-18T11:21:56;2.95;;;1.95;;
34136;SDS011;20414;50.860;4.382;2022-12-18T11:24:27;2.40;;;1.90;;
34136;SDS011;20414;50.860;4.382;2022-12-18T11:27:00;2.65;;;1.98;;
34136;SDS011;20414;50.860;4.382;2022-12-18T11:29:37;2.50;;;1.73;;
34136;SDS011;20414;50.860;4.382;2022-12-18T11:35:14;2.45;;;1.90;;
34136;SDS011;20414;50.860;4.382;2022-12-18T11:37:53;2.85;;;2.00;;
34136;SDS011;20414;50.860;4.382;2022-12-18T11:40:27;2.03;;;1.50;;
34136;SDS011;20414;50.860;4.382;2022-12-18T11:45:34;2.92;;;2.00;;
34136;SDS011;20414;50.860;4.382;2022-12-18T11:50:51;1.90;;;1.70;;
34136;SDS011;20414;50.860;4.382;2022-12-18T11:53:19;2.83;;;2.00;;
34136;SDS011;20414;50.860;4.382;2022-12-18T12:02:01;2.78;;;2.00;;
34136;SDS011;20414;50.860;4.382;2022-12-18T12:07:07;2.35;;;1.75;;
34136;SDS011;20414;50.860;4.382;2022-12-18T12:12:19;2.20;;;1.63;;
34136;SDS011;20414;50.860;4.382;2022-12-18T12:26:26;2.08;;;1.77;;
34136;SDS011;20414;50.860;4.382;2022-12-18T12:34:09;2.42;;;1.77;;
34136;SDS011;20414;50.860;4.382;2022-12-18T12:37:11;2.28;;;1.73;;
34136;SDS011;20414;50.860;4.382;2022-12-18T12:39:53;2.25;;;1.80;;
34136;SDS011;20414;50.860;4.382;2022-12-18T12:42:26;2.47;;;1.90;;
34136;SDS011;20414;50.860;4.382;2022-12-18T12:45:57;2.03;;;1.50;;
34136;SDS011;20414;50.860;4.382;2022-12-18T12:48:07;2.38;;;1.85;;
34136;SDS011;20414;50.860;4.382;2022-12-18T12:50:42;2.50;;;1.83;;
34136;SDS011;20414;50.860;4.382;2022-12-18T12:53:11;2.58;;;1.95;;
34136;SDS011;20414;50.860;4.382;2022-12-18T12:55:51;3.03;;;1.88;;
34136;SDS011;20414;50.860;4.382;2022-12-18T12:58:25;3.17;;;2.00;;
34136;SDS011;20414;50.860;4.382;2022-12-18T13:03:56;2.60;;;2.03;;
34136;SDS011;20414;50.860;4.382;2022-12-18T13:06:35;2.75;;;1.90;;
34136;SDS011;20414;50.860;4.382;2022-12-18T13:09:10;2.55;;;1.90;;
34136;SDS011;20414;50.860;4.382;2022-12-18T13:14:28;2.95;;;2.15;;
34136;SDS011;20414;50.860;4.382;2022-12-18T13:19:41;2.15;;;1.85;;
34136;SDS011;20414;50.860;4.382;2022-12-18T13:22:28;1.98;;;1.70;;
34136;SDS011;20414;50.860;4.382;2022-12-18T13:24:58;2.70;;;2.00;;
34136;SDS011;20414;50.860;4.382;2022-12-18T13:40:57;2.00;;;1.60;;
34136;SDS011;20414;50.860;4.382;2022-12-18T13:43:27;2.63;;;1.98;;
34136;SDS011;20414;50.860;4.382;2022-12-18T13:48:52;2.95;;;2.10;;
34136;SDS011;20414;50.860;4.382;2022-12-18T13:51:21;3.63;;;2.17;;
34136;SDS011;20414;50.860;4.382;2022-12-18T13:53:50;3.42;;;2.00;;
34136;SDS011;20414;50.860;4.382;2022-12-18T13:56:21;2.40;;;1.90;;
34136;SDS011;20414;50.860;4.382;2022-12-18T14:01:56;2.47;;;1.90;;
34136;SDS011;20414;50.860;4.382;2022-12-18T14:04:27;3.20;;;2.00;;
34136;SDS011;20414;50.860;4.382;2022-12-18T14:09:42;2.65;;;1.98;;
34136;SDS011;20414;50.860;4.382;2022-12-18T14:12:19;2.90;;;1.83;;
34136;SDS011;20414;50.860;4.382;2022-12-18T14:15:50;2.42;;;1.85;;
34136;SDS011;20414;50.860;4.382;2022-12-18T14:18:25;2.90;;;1.98;;
34136;SDS011;20414;50.860;4.382;2022-12-18T14:20:59;2.53;;;1.80;;
34136;SDS011;20414;50.860;4.382;2022-12-18T14:23:28;2.20;;;1.77;;
34136;SDS011;20414;50.860;4.382;2022-12-18T14:25:54;3.60;;;2.10;;
34136;SDS011;20414;50.860;4.382;2022-12-18T14:28:20;2.60;;;1.83;;
34136;SDS011;20414;50.860;4.382;2022-12-18T14:30:47;2.85;;;1.77;;
34136;SDS011;20414;50.860;4.382;2022-12-18T14:35:42;2.40;;;1.98;;
34136;SDS011;20414;50.860;4.382;2022-12-18T14:40:53;3.63;;;2.10;;
34136;SDS011;20414;50.860;4.382;2022-12-18T14:43:31;3.42;;;2.00;;
34136;SDS011;20414;50.860;4.382;2022-12-18T14:45:58;3.30;;;2.08;;
34136;SDS011;20414;50.860;4.382;2022-12-18T14:50:55;2.85;;;2.20;;
34136;SDS011;20414;50.860;4.382;2022-12-18T14:53:43;2.78;;;2.13;;
34136;SDS011;20414;50.860;4.382;2022-12-18T14:59:02;3.25;;;2.25;;
34136;SDS011;20414;50.860;4.382;2022-12-18T15:01:31;2.83;;;1.98;;
34136;SDS011;20414;50.860;4.382;2022-12-18T15:04:03;2.85;;;2.00;;
34136;SDS011;20414;50.860;4.382;2022-12-18T15:09:00;2.80;;;2.00;;
34136;SDS011;20414;50.860;4.382;2022-12-18T15:11:43;2.47;;;2.03;;
34136;SDS011;20414;50.860;4.382;2022-12-18T15:16:55;3.20;;;2.17;;
34136;SDS011;20414;50.860;4.382;2022-12-18T15:19:22;2.67;;;2.10;;
34136;SDS011;20414;50.860;4.382;2022-12-18T15:22:02;2.35;;;2.00;;
34136;SDS011;20414;50.860;4.382;2022-12-18T15:24:30;2.90;;;2.17;;
34136;SDS011;20414;50.860;4.382;2022-12-18T15:26:57;2.38;;;1.80;;
34136;SDS011;20414;50.860;4.382;2022-12-18T15:29:23;2.70;;;2.08;;
34136;SDS011;20414;50.860;4.382;2022-12-18T15:31:58;2.25;;;2.00;;
34136;SDS011;20414;50.860;4.382;2022-12-18T15:34:28;3.58;;;2.25;;
34136;SDS011;20414;50.860;4.382;2022-12-18T15:36:54;3.50;;;2.10;;
34136;SDS011;20414;50.860;4.382;2022-12-18T15:39:20;2.47;;;2.03;;
34136;SDS011;20414;50.860;4.382;2022-12-18T15:41:46;2.75;;;1.98;;
34136;SDS011;20414;50.860;4.382;2022-12-18T15:44:30;2.85;;;2.10;;
34136;SDS011;20414;50.860;4.382;2022-12-18T15:46:56;2.90;;;2.10;;
34136;SDS011;20414;50.860;4.382;2022-12-18T15:49:22;3.08;;;2.28;;
34136;SDS011;20414;50.860;4.382;2022-12-18T15:51:50;2.53;;;2.05;;
34136;SDS011;20414;50.860;4.382;2022-12-18T15:57:04;3.15;;;2.28;;
34136;SDS011;20414;50.860;4.382;2022-12-18T15:59:47;2.70;;;2.08;;
34136;SDS011;20414;50.860;4.382;2022-12-18T16:02:16;2.78;;;2.05;;
34136;SDS011;20414;50.860;4.382;2022-12-18T16:04:42;3.13;;;2.20;;
34136;SDS011;20414;50.860;4.382;2022-12-18T16:07:09;3.00;;;2.28;;
34136;SDS011;20414;50.860;4.382;2022-12-18T16:09:35;3.13;;;2.00;;
34136;SDS011;20414;50.860;4.382;2022-12-18T16:12:05;3.08;;;2.13;;
34136;SDS011;20414;50.860;4.382;2022-12-18T16:14:41;2.50;;;1.92;;
34136;SDS011;20414;50.860;4.382;2022-12-18T16:17:09;2.90;;;2.03;;
34136;SDS011;20414;50.860;4.382;2022-12-18T16:19:36;3.08;;;2.20;;
34136;SDS011;20414;50.860;4.382;2022-12-18T16:22:02;2.63;;;1.90;;
34136;SDS011;20414;50.860;4.382;2022-12-18T16:24:29;3.13;;;2.15;;
34136;SDS011;20414;50.860;4.382;2022-12-18T16:26:58;2.58;;;1.77;;
34136;SDS011;20414;50.860;4.382;2022-12-18T16:29:43;2.20;;;1.90;;
34136;SDS011;20414;50.860;4.382;2022-12-18T16:32:13;3.08;;;2.00;;
34136;SDS011;20414;50.860;4.382;2022-12-18T16:34:41;2.75;;;2.03;;
34136;SDS011;20414;50.860;4.382;2022-12-18T16:37:08;3.03;;;2.25;;
34136;SDS011;20414;50.860;4.382;2022-12-18T16:39:35;3.13;;;2.33;;
34136;SDS011;20414;50.860;4.382;2022-12-18T16:42:03;3.83;;;2.33;;
34136;SDS011;20414;50.860;4.382;2022-12-18T16:44:37;3.05;;;2.10;;
34136;SDS011;20414;50.860;4.382;2022-12-18T16:47:03;3.17;;;2.22;;
34136;SDS011;20414;50.860;4.382;2022-12-18T16:49:29;2.90;;;2.00;;
34136;SDS011;20414;50.860;4.382;2022-12-18T16:51:58;2.92;;;2.33;;
34136;SDS011;20414;50.860;4.382;2022-12-18T16:54:24;2.92;;;2.30;;
34136;SDS011;20414;50.860;4.382;2022-12-18T16:56:54;3.10;;;2.28;;
34136;SDS011;20414;50.860;4.382;2022-12-18T16:59:20;3.00;;;2.13;;
34136;SDS011;20414;50.860;4.382;2022-12-18T17:01:46;3.38;;;2.22;;
34136;SDS011;20414;50.860;4.382;2022-12-18T17:04:12;2.83;;;2.05;;
34136;SDS011;20414;50.860;4.382;2022-12-18T17:06:39;2.70;;;2.20;;
34136;SDS011;20414;50.860;4.382;2022-12-18T17:09:07;2.85;;;2.17;;
34136;SDS011;20414;50.860;4.382;2022-12-18T17:11:38;3.03;;;2.38;;
34136;SDS011;20414;50.860;4.382;2022-12-18T17:14:14;2.92;;;2.20;;
34136;SDS011;20414;50.860;4.382;2022-12-18T17:16:42;2.95;;;2.08;;
34136;SDS011;20414;50.860;4.382;2022-12-18T17:19:08;3.67;;;2.55;;
34136;SDS011;20414;50.860;4.382;2022-12-18T17:21:34;3.50;;;2.15;;
34136;SDS011;20414;50.860;4.382;2022-12-18T17:24:00;2.70;;;1.95;;
34136;SDS011;20414;50.860;4.382;2022-12-18T17:26:29;2.30;;;1.92;;
34136;SDS011;20414;50.860;4.382;2022-12-18T17:28:56;3.47;;;2.15;;